sensor_id;sensor_type;location;lat;lon;timestamp;pressure;altitude;pressure_sealevel;temperature;humidity
44453;BME280;30155;52.164;21.236;2022-12-29T00:02:09;100337.25;;;4.89;78.27
44453;BME280;30155;52.164;21.236;2022-12-29T00:07:01;100337.37;;;4.92;78.29
44453;BME280;30155;52.164;21.236;2022-12-29T00:11:54;100339.10;;;4.93;78.07
44453;BME280;30155;52.164;21.236;2022-12-29T00:16:45;100345.20;;;4.95;77.87
44453;BME280;30155;52.164;21.236;2022-12-29T00:21:36;100337.56;;;4.99;78.08
44453;BME280;30155;52.164;21.236;2022-12-29T00:32:01;100327.20;;;4.97;78.21
44453;BME280;30155;52.164;21.236;2022-12-29T00:37:10;100326.70;;;4.94;78.10
44453;BME280;30155;52.164;21.236;2022-12-29T00:42:05;100325.89;;;4.95;78.17
44453;BME280;30155;52.164;21.236;2022-12-29T00:47:16;100331.85;;;4.94;78.09
44453;BME280;30155;52.164;21.236;2022-12-29T00:52:09;100331.85;;;4.94;78.01
44453;BME280;30155;52.164;21.236;2022-12-29T00:57:03;100332.66;;;4.93;77.78
44453;BME280;30155;52.164;21.236;2022-12-29T01:01:56;100346.02;;;4.94;78.09
44453;BME280;30155;52.164;21.236;2022-12-29T01:06:47;100339.10;;;4.93;78.10
44453;BME280;30155;52.164;21.236;2022-12-29T01:11:40;100326.70;;;4.94;78.04
44453;BME280;30155;52.164;21.236;2022-12-29T01:16:31;100327.98;;;4.94;78.08
44453;BME280;30155;52.164;21.236;2022-12-29T01:21:22;100317.20;;;4.93;77.88
44453;BME280;30155;52.164;21.236;2022-12-29T01:26:16;100309.89;;;4.93;77.88
44453;BME280;30155;52.164;21.236;2022-12-29T01:31:09;100304.74;;;4.93;77.75
44453;BME280;30155;52.164;21.236;2022-12-29T01:36:02;100304.30;;;4.92;77.77
44453;BME280;30155;52.164;21.236;2022-12-29T01:40:55;100290.08;;;4.90;77.85
44453;BME280;30155;52.164;21.236;2022-12-29T01:45:48;100282.73;;;4.90;77.78
44453;BME280;30155;52.164;21.236;2022-12-29T01:50:53;100284.02;;;4.90;77.56
44453;BME280;30155;52.164;21.236;2022-12-29T01:55:50;100277.19;;;4.90;77.59
44453;BME280;30155;52.164;21.236;2022-12-29T02:00:43;100269.41;;;4.89;77.34
44453;BME280;30155;52.164;21.236;2022-12-29T02:05:42;100254.81;;;4.89;77.49
44453;BME280;30155;52.164;21.236;2022-12-29T02:10:43;100259.97;;;4.89;77.38
44453;BME280;30155;52.164;21.236;2022-12-29T02:31:31;100254.70;;;4.86;77.45
44453;BME280;30155;52.164;21.236;2022-12-29T02:37:13;100242.25;;;4.86;77.31
44453;BME280;30155;52.164;21.236;2022-12-29T02:42:44;100244.33;;;4.83;77.58
44453;BME280;30155;52.164;21.236;2022-12-29T02:52:26;100259.02;;;4.73;78.09
44453;BME280;30155;52.164;21.236;2022-12-29T03:12:34;100281.05;;;4.52;79.53
44453;BME280;30155;52.164;21.236;2022-12-29T03:17:58;100282.13;;;4.46;79.82
44453;BME280;30155;52.164;21.236;2022-12-29T03:22:58;100277.17;;;4.39;80.18
44453;BME280;30155;52.164;21.236;2022-12-29T03:27:55;100289.73;;;4.30;80.46
44453;BME280;30155;52.164;21.236;2022-12-29T03:32:58;100288.69;;;4.25;80.94
44453;BME280;30155;52.164;21.236;2022-12-29T03:37:54;100286.83;;;4.20;81.26
44453;BME280;30155;52.164;21.236;2022-12-29T03:42:47;100265.95;;;4.13;81.66
44453;BME280;30155;52.164;21.236;2022-12-29T03:47:39;100267.95;;;4.09;81.87
44453;BME280;30155;52.164;21.236;2022-12-29T03:52:31;100245.47;;;4.03;82.13
44453;BME280;30155;52.164;21.236;2022-12-29T03:57:22;100236.77;;;3.99;82.43
44453;BME280;30155;52.164;21.236;2022-12-29T04:02:21;100197.19;;;3.96;82.60
44453;BME280;30155;52.164;21.236;2022-12-29T04:07:12;100174.28;;;3.91;82.74
44453;BME280;30155;52.164;21.236;2022-12-29T04:12:05;100183.59;;;3.87;82.88
44453;BME280;30155;52.164;21.236;2022-12-29T04:16:57;100206.17;;;3.83;82.87
44453;BME280;30155;52.164;21.236;2022-12-29T04:21:48;100192.78;;;3.80;82.89
44453;BME280;30155;52.164;21.236;2022-12-29T04:26:40;100196.13;;;3.78;83.09
44453;BME280;30155;52.164;21.236;2022-12-29T04:31:34;100201.03;;;3.72;83.13
44453;BME280;30155;52.164;21.236;2022-12-29T04:36:26;100204.86;;;3.70;83.44
44453;BME280;30155;52.164;21.236;2022-12-29T04:41:17;100185.52;;;3.69;83.56
44453;BME280;30155;52.164;21.236;2022-12-29T04:46:09;100202.53;;;3.65;83.60
44453;BME280;30155;52.164;21.236;2022-12-29T04:51:08;100200.58;;;3.59;83.40
44453;BME280;30155;52.164;21.236;2022-12-29T04:56:01;100174.60;;;3.52;83.52
44453;BME280;30155;52.164;21.236;2022-12-29T05:00:52;100171.11;;;3.50;83.72
44453;BME280;30155;52.164;21.236;2022-12-29T05:05:45;100171.34;;;3.44;83.66
44453;BME280;30155;52.164;21.236;2022-12-29T05:10:37;100178.06;;;3.41;83.62
44453;BME280;30155;52.164;21.236;2022-12-29T05:15:30;100176.72;;;3.39;83.77
44453;BME280;30155;52.164;21.236;2022-12-29T05:20:22;100162.94;;;3.37;83.73
44453;BME280;30155;52.164;21.236;2022-12-29T05:25:13;100156.30;;;3.31;83.76
44453;BME280;30155;52.164;21.236;2022-12-29T05:30:14;100158.39;;;3.30;83.93
44453;BME280;30155;52.164;21.236;2022-12-29T05:35:07;100160.52;;;3.29;84.06
44453;BME280;30155;52.164;21.236;2022-12-29T05:39:59;100150.11;;;3.26;83.87
44453;BME280;30155;52.164;21.236;2022-12-29T05:44:50;100150.11;;;3.26;83.99
44453;BME280;30155;52.164;21.236;2022-12-29T05:49:51;100137.62;;;3.24;83.91
44453;BME280;30155;52.164;21.236;2022-12-29T05:54:44;100125.58;;;3.23;84.07
44453;BME280;30155;52.164;21.236;2022-12-29T05:59:37;100120.80;;;3.21;83.90
44453;BME280;30155;52.164;21.236;2022-12-29T06:04:29;100120.32;;;3.20;84.19
44453;BME280;30155;52.164;21.236;2022-12-29T06:09:20;100115.16;;;3.18;84.08
44453;BME280;30155;52.164;21.236;2022-12-29T06:14:12;100122.73;;;3.15;84.12
44453;BME280;30155;52.164;21.236;2022-12-29T06:19:05;100132.17;;;3.16;84.14
44453;BME280;30155;52.164;21.236;2022-12-29T06:23:56;100125.37;;;3.17;84.13
44453;BME280;30155;52.164;21.236;2022-12-29T06:28:47;100121.52;;;3.17;84.10
44453;BME280;30155;52.164;21.236;2022-12-29T06:33:38;100125.43;;;3.18;84.09
44453;BME280;30155;52.164;21.236;2022-12-29T06:38:29;100139.65;;;3.21;84.08
44453;BME280;30155;52.164;21.236;2022-12-29T06:43:21;100137.20;;;3.24;84.11
44453;BME280;30155;52.164;21.236;2022-12-29T06:48:17;100142.47;;;3.28;84.04
44453;BME280;30155;52.164;21.236;2022-12-29T06:53:08;100148.98;;;3.31;83.73
44453;BME280;30155;52.164;21.236;2022-12-29T06:57:59;100153.73;;;3.31;83.96
44453;BME280;30155;52.164;21.236;2022-12-29T07:02:52;100157.67;;;3.34;83.97
44453;BME280;30155;52.164;21.236;2022-12-29T07:07:45;100156.88;;;3.35;83.95
44453;BME280;30155;52.164;21.236;2022-12-29T07:12:36;100141.58;;;3.38;84.29
44453;BME280;30155;52.164;21.236;2022-12-29T07:17:27;100142.86;;;3.38;83.97
44453;BME280;30155;52.164;21.236;2022-12-29T07:22:18;100136.08;;;3.40;84.13
44453;BME280;30155;52.164;21.236;2022-12-29T07:27:09;100122.06;;;3.43;84.06
44453;BME280;30155;52.164;21.236;2022-12-29T07:32:00;100136.20;;;3.43;83.96
44453;BME280;30155;52.164;21.236;2022-12-29T07:36:51;100127.77;;;3.48;83.85
44453;BME280;30155;52.164;21.236;2022-12-29T07:41:42;100125.77;;;3.52;83.57
44453;BME280;30155;52.164;21.236;2022-12-29T07:46:35;100123.76;;;3.56;83.53
44453;BME280;30155;52.164;21.236;2022-12-29T07:51:26;100113.53;;;3.57;83.26
44453;BME280;30155;52.164;21.236;2022-12-29T07:56:17;100114.27;;;3.66;83.37
44453;BME280;30155;52.164;21.236;2022-12-29T08:01:08;100112.80;;;3.73;83.31
44453;BME280;30155;52.164;21.236;2022-12-29T08:05:59;100109.42;;;3.87;83.15
44453;BME280;30155;52.164;21.236;2022-12-29T08:10:50;100102.22;;;3.89;83.06
44453;BME280;30155;52.164;21.236;2022-12-29T08:15:41;100097.23;;;3.94;82.48
44453;BME280;30155;52.164;21.236;2022-12-29T08:20:32;100097.73;;;3.96;82.55
44453;BME280;30155;52.164;21.236;2022-12-29T08:25:23;100098.52;;;4.07;82.38
44453;BME280;30155;52.164;21.236;2022-12-29T08:30:14;100084.30;;;4.18;82.34
44453;BME280;30155;52.164;21.236;2022-12-29T08:35:07;100072.62;;;4.28;81.68
44453;BME280;30155;52.164;21.236;2022-12-29T08:39:59;100093.61;;;4.40;81.47
44453;BME280;30155;52.164;21.236;2022-12-29T08:44:52;100093.96;;;4.52;81.12
44453;BME280;30155;52.164;21.236;2022-12-29T08:49:43;100093.64;;;4.83;81.01
44453;BME280;30155;52.164;21.236;2022-12-29T08:54:36;100089.11;;;5.19;80.07
44453;BME280;30155;52.164;21.236;2022-12-29T08:59:28;100097.49;;;5.42;79.43
44453;BME280;30155;52.164;21.236;2022-12-29T09:04:19;100105.81;;;5.48;79.31
44453;BME280;30155;52.164;21.236;2022-12-29T09:09:10;100103.09;;;5.59;79.53
44453;BME280;30155;52.164;21.236;2022-12-29T09:14:02;100099.47;;;5.68;78.84
44453;BME280;30155;52.164;21.236;2022-12-29T09:18:53;100099.36;;;5.80;79.10
44453;BME280;30155;52.164;21.236;2022-12-29T09:23:44;100085.41;;;5.89;78.55
44453;BME280;30155;52.164;21.236;2022-12-29T09:28:35;100090.67;;;6.09;78.04
44453;BME280;30155;52.164;21.236;2022-12-29T09:33:27;100086.59;;;6.18;78.08
44453;BME280;30155;52.164;21.236;2022-12-29T09:38:19;100081.95;;;6.22;77.80
44453;BME280;30155;52.164;21.236;2022-12-29T09:48:27;100079.59;;;6.31;75.93
44453;BME280;30155;52.164;21.236;2022-12-29T09:53:33;100070.94;;;6.29;76.47
44453;BME280;30155;52.164;21.236;2022-12-29T09:58:40;100070.45;;;6.26;76.33
44453;BME280;30155;52.164;21.236;2022-12-29T10:03:49;100073.00;;;6.25;75.62
44453;BME280;30155;52.164;21.236;2022-12-29T10:09:13;100052.78;;;6.26;75.96
44453;BME280;30155;52.164;21.236;2022-12-29T10:14:29;100045.50;;;6.27;76.03
44453;BME280;30155;52.164;21.236;2022-12-29T10:19:30;100045.50;;;6.27;76.03
44453;BME280;30155;52.164;21.236;2022-12-29T10:24:24;100042.53;;;6.29;75.68
44453;BME280;30155;52.164;21.236;2022-12-29T10:29:29;100035.64;;;6.28;75.59
44453;BME280;30155;52.164;21.236;2022-12-29T10:34:28;100029.23;;;6.31;75.31
44453;BME280;30155;52.164;21.236;2022-12-29T10:44:31;100030.73;;;6.39;75.44
44453;BME280;30155;52.164;21.236;2022-12-29T10:49:24;100021.38;;;6.44;75.32
44453;BME280;30155;52.164;21.236;2022-12-29T10:59:29;100019.93;;;6.77;74.38
44453;BME280;30155;52.164;21.236;2022-12-29T11:05:07;100005.47;;;6.85;74.54
44453;BME280;30155;52.164;21.236;2022-12-29T11:09:32;99993.56;;;6.92;73.85
44453;BME280;30155;52.164;21.236;2022-12-29T11:14:30;99994.42;;;6.93;73.64
44453;BME280;30155;52.164;21.236;2022-12-29T11:19:25;99994.53;;;6.99;73.66
44453;BME280;30155;52.164;21.236;2022-12-29T11:24:26;99994.20;;;7.04;73.50
44453;BME280;30155;52.164;21.236;2022-12-29T11:29:37;100003.72;;;7.05;73.21
44453;BME280;30155;52.164;21.236;2022-12-29T11:39:29;99999.27;;;6.98;73.23
44453;BME280;30155;52.164;21.236;2022-12-29T11:44:22;99988.53;;;7.00;73.50
44453;BME280;30155;52.164;21.236;2022-12-29T11:49:22;99999.77;;;7.02;73.27
44453;BME280;30155;52.164;21.236;2022-12-29T11:54:29;99992.70;;;6.93;73.10
44453;BME280;30155;52.164;21.236;2022-12-29T12:04:34;99998.41;;;6.99;73.04
44453;BME280;30155;52.164;21.236;2022-12-29T12:09:28;99994.20;;;7.04;72.93
44453;BME280;30155;52.164;21.236;2022-12-29T12:14:25;99994.20;;;7.04;72.93
44453;BME280;30155;52.164;21.236;2022-12-29T12:19:40;99990.39;;;7.07;73.11
44453;BME280;30155;52.164;21.236;2022-12-29T12:24:48;99981.84;;;7.11;72.40
44453;BME280;30155;52.164;21.236;2022-12-29T12:30:02;99978.41;;;7.11;73.03
44453;BME280;30155;52.164;21.236;2022-12-29T12:34:55;99978.41;;;7.11;73.03
44453;BME280;30155;52.164;21.236;2022-12-29T12:55:46;99960.84;;;7.16;73.48
44453;BME280;30155;52.164;21.236;2022-12-29T13:11:51;99948.31;;;7.14;73.25
44453;BME280;30155;52.164;21.236;2022-12-29T13:22:33;99949.17;;;7.15;73.04
44453;BME280;30155;52.164;21.236;2022-12-29T13:27:57;99956.50;;;7.15;73.16
44453;BME280;30155;52.164;21.236;2022-12-29T13:33:19;99956.09;;;7.16;73.43
44453;BME280;30155;52.164;21.236;2022-12-29T13:38:39;99960.80;;;7.15;73.40
44453;BME280;30155;52.164;21.236;2022-12-29T13:43:34;99968.59;;;7.16;73.53
44453;BME280;30155;52.164;21.236;2022-12-29T13:48:40;99963.89;;;7.17;73.43
44453;BME280;30155;52.164;21.236;2022-12-29T13:53:54;99958.75;;;7.20;73.36
44453;BME280;30155;52.164;21.236;2022-12-29T14:03:56;99967.53;;;7.29;72.48
44453;BME280;30155;52.164;21.236;2022-12-29T14:08:54;99974.98;;;7.35;72.85
44453;BME280;30155;52.164;21.236;2022-12-29T14:13:48;99959.94;;;7.38;72.43
44453;BME280;30155;52.164;21.236;2022-12-29T14:18:44;99984.20;;;7.44;72.90
44453;BME280;30155;52.164;21.236;2022-12-29T14:23:40;99981.18;;;7.45;72.84
44453;BME280;30155;52.164;21.236;2022-12-29T14:28:42;99982.60;;;7.51;72.51
44453;BME280;30155;52.164;21.236;2022-12-29T14:33:35;99975.73;;;7.53;72.19
44453;BME280;30155;52.164;21.236;2022-12-29T14:38:28;99968.87;;;7.55;72.60
44453;BME280;30155;52.164;21.236;2022-12-29T14:43:24;99976.66;;;7.57;72.37
44453;BME280;30155;52.164;21.236;2022-12-29T14:53:50;99964.55;;;7.56;72.66
44453;BME280;30155;52.164;21.236;2022-12-29T14:58:51;99961.51;;;7.53;72.80
44453;BME280;30155;52.164;21.236;2022-12-29T15:03:53;99961.02;;;7.51;72.80
44453;BME280;30155;52.164;21.236;2022-12-29T15:08:52;99960.16;;;7.50;72.99
44453;BME280;30155;52.164;21.236;2022-12-29T15:13:49;99964.86;;;7.49;72.73
44453;BME280;30155;52.164;21.236;2022-12-29T15:18:40;99961.05;;;7.52;72.70
44453;BME280;30155;52.164;21.236;2022-12-29T15:23:34;99960.67;;;7.56;72.64
44453;BME280;30155;52.164;21.236;2022-12-29T15:28:28;99959.41;;;7.57;72.72
44453;BME280;30155;52.164;21.236;2022-12-29T15:33:37;99964.59;;;7.57;72.63
44453;BME280;30155;52.164;21.236;2022-12-29T15:38:30;99966.40;;;7.63;72.64
44453;BME280;30155;52.164;21.236;2022-12-29T15:48:33;99968.74;;;7.49;72.41
44453;BME280;30155;52.164;21.236;2022-12-29T15:53:31;99974.72;;;7.45;72.44
44453;BME280;30155;52.164;21.236;2022-12-29T15:58:29;99962.92;;;7.36;72.69
44453;BME280;30155;52.164;21.236;2022-12-29T16:03:22;99963.31;;;7.34;72.76
44453;BME280;30155;52.164;21.236;2022-12-29T16:13:34;99964.45;;;7.24;72.67
44453;BME280;30155;52.164;21.236;2022-12-29T16:18:30;99968.20;;;7.18;72.76
44453;BME280;30155;52.164;21.236;2022-12-29T16:23:25;99971.44;;;7.08;72.89
44453;BME280;30155;52.164;21.236;2022-12-29T16:28:35;99974.81;;;7.04;73.06
44453;BME280;30155;52.164;21.236;2022-12-29T16:33:38;99974.75;;;7.01;73.06
44453;BME280;30155;52.164;21.236;2022-12-29T16:38:36;99989.19;;;6.90;73.17
44453;BME280;30155;52.164;21.236;2022-12-29T16:43:30;99988.03;;;6.75;73.37
44453;BME280;30155;52.164;21.236;2022-12-29T16:48:36;99987.70;;;6.60;73.69
44453;BME280;30155;52.164;21.236;2022-12-29T16:53:47;99990.40;;;6.45;73.86
44453;BME280;30155;52.164;21.236;2022-12-29T16:58:39;100002.80;;;6.41;74.14
44453;BME280;30155;52.164;21.236;2022-12-29T17:03:49;100003.34;;;6.47;74.30
44453;BME280;30155;52.164;21.236;2022-12-29T17:08:43;99998.02;;;6.58;74.58
44453;BME280;30155;52.164;21.236;2022-12-29T17:13:35;99988.34;;;6.70;74.48
44453;BME280;30155;52.164;21.236;2022-12-29T17:18:26;99988.34;;;6.70;74.48
44453;BME280;30155;52.164;21.236;2022-12-29T17:23:17;99997.58;;;6.79;74.35
44453;BME280;30155;52.164;21.236;2022-12-29T17:28:26;99996.11;;;6.91;74.34
44453;BME280;30155;52.164;21.236;2022-12-29T17:33:20;99997.72;;;7.08;74.07
44453;BME280;30155;52.164;21.236;2022-12-29T17:38:22;100000.02;;;7.14;74.03
44453;BME280;30155;52.164;21.236;2022-12-29T17:43:19;100000.02;;;7.14;74.03
44453;BME280;30155;52.164;21.236;2022-12-29T17:48:16;99993.22;;;7.19;73.98
44453;BME280;30155;52.164;21.236;2022-12-29T17:53:10;100001.18;;;7.30;73.71
44453;BME280;30155;52.164;21.236;2022-12-29T18:03:16;100002.14;;;7.35;73.71
44453;BME280;30155;52.164;21.236;2022-12-29T18:08:10;99993.52;;;7.36;73.48
44453;BME280;30155;52.164;21.236;2022-12-29T18:13:02;100003.96;;;7.41;73.18
44453;BME280;30155;52.164;21.236;2022-12-29T18:18:18;100003.17;;;7.45;73.42
44453;BME280;30155;52.164;21.236;2022-12-29T18:23:23;99991.06;;;7.42;73.21
44453;BME280;30155;52.164;21.236;2022-12-29T18:28:19;100009.70;;;7.48;73.21
44453;BME280;30155;52.164;21.236;2022-12-29T18:33:14;100011.42;;;7.49;73.12
44453;BME280;30155;52.164;21.236;2022-12-29T18:38:07;100023.53;;;7.50;72.83
44453;BME280;30155;52.164;21.236;2022-12-29T18:42:58;100020.05;;;7.48;73.18
44453;BME280;30155;52.164;21.236;2022-12-29T18:47:50;100019.98;;;7.45;72.98
44453;BME280;30155;52.164;21.236;2022-12-29T18:52:41;100013.08;;;7.44;72.99
44453;BME280;30155;52.164;21.236;2022-12-29T18:57:32;100010.03;;;7.43;73.10
44453;BME280;30155;52.164;21.236;2022-12-29T19:02:24;100006.52;;;7.39;73.01
44453;BME280;30155;52.164;21.236;2022-12-29T19:07:17;100006.95;;;7.39;73.11
44453;BME280;30155;52.164;21.236;2022-12-29T19:12:12;100003.90;;;7.38;73.12
44453;BME280;30155;52.164;21.236;2022-12-29T19:17:11;99992.53;;;7.30;73.68
44453;BME280;30155;52.164;21.236;2022-12-29T19:22:02;99992.53;;;7.30;73.68
44453;BME280;30155;52.164;21.236;2022-12-29T19:26:54;100007.31;;;7.35;73.51
44453;BME280;30155;52.164;21.236;2022-12-29T19:31:45;100000.81;;;7.34;73.46
44453;BME280;30155;52.164;21.236;2022-12-29T19:36:36;100007.28;;;7.34;73.42
44453;BME280;30155;52.164;21.236;2022-12-29T19:41:27;100007.28;;;7.34;73.53
44453;BME280;30155;52.164;21.236;2022-12-29T19:46:18;100002.54;;;7.35;73.64
44453;BME280;30155;52.164;21.236;2022-12-29T19:51:12;100008.17;;;7.36;73.49
44453;BME280;30155;52.164;21.236;2022-12-29T19:56:08;100005.12;;;7.35;73.50
44453;BME280;30155;52.164;21.236;2022-12-29T20:01:15;100002.17;;;7.37;73.48
44453;BME280;30155;52.164;21.236;2022-12-29T20:06:06;100002.17;;;7.37;73.55
44453;BME280;30155;52.164;21.236;2022-12-29T20:11:00;100009.07;;;7.38;73.49
44453;BME280;30155;52.164;21.236;2022-12-29T20:16:03;100007.38;;;7.40;73.51
44453;BME280;30155;52.164;21.236;2022-12-29T20:21:07;100007.48;;;7.44;73.48
44453;BME280;30155;52.164;21.236;2022-12-29T20:26:00;100010.99;;;7.48;73.39
44453;BME280;30155;52.164;21.236;2022-12-29T20:31:03;100009.77;;;7.51;73.47
44453;BME280;30155;52.164;21.236;2022-12-29T20:36:09;100010.26;;;7.55;73.30
44453;BME280;30155;52.164;21.236;2022-12-29T20:41:04;99991.28;;;7.56;73.04
44453;BME280;30155;52.164;21.236;2022-12-29T20:45:55;100001.63;;;7.56;73.22
44453;BME280;30155;52.164;21.236;2022-12-29T20:50:47;99993.81;;;7.52;73.22
44453;BME280;30155;52.164;21.236;2022-12-29T20:55:38;100017.62;;;7.57;73.14
44453;BME280;30155;52.164;21.236;2022-12-29T21:00:29;100012.05;;;7.59;73.16
44453;BME280;30155;52.164;21.236;2022-12-29T21:05:22;100013.34;;;7.59;73.28
44453;BME280;30155;52.164;21.236;2022-12-29T21:10:13;100008.10;;;7.56;73.31
44453;BME280;30155;52.164;21.236;2022-12-29T21:15:05;100008.10;;;7.56;73.31
44453;BME280;30155;52.164;21.236;2022-12-29T21:19:56;100014.50;;;7.52;72.98
44453;BME280;30155;52.164;21.236;2022-12-29T21:24:47;100011.88;;;7.50;73.20
44453;BME280;30155;52.164;21.236;2022-12-29T21:29:38;100010.92;;;7.45;73.27
44453;BME280;30155;52.164;21.236;2022-12-29T21:34:29;100015.67;;;7.44;73.30
44453;BME280;30155;52.164;21.236;2022-12-29T21:39:21;100015.14;;;7.40;73.34
44453;BME280;30155;52.164;21.236;2022-12-29T21:44:12;100015.47;;;7.35;73.56
44453;BME280;30155;52.164;21.236;2022-12-29T21:49:22;100021.91;;;7.33;73.62
44453;BME280;30155;52.164;21.236;2022-12-29T21:54:24;100018.02;;;7.32;73.60
44453;BME280;30155;52.164;21.236;2022-12-29T21:59:37;100025.38;;;7.34;73.73
44453;BME280;30155;52.164;21.236;2022-12-29T22:04:47;100015.08;;;7.35;73.61
44453;BME280;30155;52.164;21.236;2022-12-29T22:09:57;100023.30;;;7.38;73.90
44453;BME280;30155;52.164;21.236;2022-12-29T22:15:07;100016.33;;;7.34;73.80
44453;BME280;30155;52.164;21.236;2022-12-29T22:19:58;100025.88;;;7.38;73.71
44453;BME280;30155;52.164;21.236;2022-12-29T22:24:49;100026.75;;;7.37;73.93
44453;BME280;30155;52.164;21.236;2022-12-29T22:29:40;100023.69;;;7.36;73.81
44453;BME280;30155;52.164;21.236;2022-12-29T22:34:32;100027.17;;;7.38;73.59
44453;BME280;30155;52.164;21.236;2022-12-29T22:39:24;100027.67;;;7.40;73.75
44453;BME280;30155;52.164;21.236;2022-12-29T22:44:15;100039.64;;;7.35;73.74
44453;BME280;30155;52.164;21.236;2022-12-29T22:49:07;100049.38;;;7.27;73.84
44453;BME280;30155;52.164;21.236;2022-12-29T22:53:58;100053.84;;;7.13;73.76
44453;BME280;30155;52.164;21.236;2022-12-29T22:58:49;100057.21;;;7.09;74.02
44453;BME280;30155;52.164;21.236;2022-12-29T23:03:41;100063.56;;;7.03;73.92
44453;BME280;30155;52.164;21.236;2022-12-29T23:08:35;100062.62;;;7.01;73.92
44453;BME280;30155;52.164;21.236;2022-12-29T23:13:28;100073.68;;;6.94;73.94
44453;BME280;30155;52.164;21.236;2022-12-29T23:18:19;100072.70;;;6.87;73.85
44453;BME280;30155;52.164;21.236;2022-12-29T23:23:10;100069.88;;;6.76;73.99
44453;BME280;30155;52.164;21.236;2022-12-29T23:28:02;100069.88;;;6.76;74.09
44453;BME280;30155;52.164;21.236;2022-12-29T23:32:54;100072.47;;;6.76;74.00
44453;BME280;30155;52.164;21.236;2022-12-29T23:37:45;100081.12;;;6.78;73.91
44453;BME280;30155;52.164;21.236;2022-12-29T23:42:36;100091.14;;;6.83;73.81
44453;BME280;30155;52.164;21.236;2022-12-29T23:47:27;100083.39;;;6.83;73.81
44453;BME280;30155;52.164;21.236;2022-12-29T23:52:18;100088.60;;;6.86;74.07
44453;BME280;30155;52.164;21.236;2022-12-29T23:57:09;100081.23;;;6.84;73.98
